createdAt,value
2023-07-02T00:02:08.231Z,9.65
2023-07-02T00:04:35.225Z,9.43
2023-07-02T00:07:02.528Z,9.23
2023-07-02T00:09:30.478Z,9.75
2023-07-02T00:11:57.389Z,10.38
2023-07-02T00:14:24.340Z,9.52
2023-07-02T00:16:51.306Z,10.50
2023-07-02T00:19:19.427Z,9.52
2023-07-02T00:21:46.261Z,9.75
2023-07-02T00:24:13.289Z,9.48
2023-07-02T00:26:41.576Z,9.75
2023-07-02T00:29:10.067Z,9.93
2023-07-02T00:31:37.161Z,9.73
2023-07-02T00:34:05.104Z,9.48
2023-07-02T00:36:32.323Z,10.30
2023-07-02T00:38:59.443Z,9.20
2023-07-02T00:41:26.326Z,9.85
2023-07-02T00:43:55.466Z,10.00
2023-07-02T00:46:24.486Z,9.10
2023-07-02T00:48:52.355Z,9.73
2023-07-02T00:51:23.775Z,9.80
2023-07-02T00:53:52.153Z,10.15
2023-07-02T00:56:19.704Z,9.75
2023-07-02T00:58:51.428Z,9.93
2023-07-02T01:01:23.862Z,9.90
2023-07-02T01:03:53.635Z,9.85
2023-07-02T01:06:26.263Z,9.80
2023-07-02T01:08:58.843Z,10.77
2023-07-02T01:11:32.063Z,9.23
2023-07-02T01:14:02.926Z,10.02
2023-07-02T01:16:32.070Z,10.40
2023-07-02T01:18:59.028Z,10.05
2023-07-02T01:21:25.901Z,9.75
2023-07-02T01:23:52.817Z,9.82
2023-07-02T01:26:19.972Z,10.43
2023-07-02T01:28:47.040Z,10.52
2023-07-02T01:31:14.971Z,11.35
2023-07-02T01:33:41.924Z,10.43
2023-07-02T01:36:08.879Z,10.68
2023-07-02T01:38:35.726Z,10.50
2023-07-02T01:41:02.613Z,10.30
2023-07-02T01:43:29.525Z,9.85
2023-07-02T01:45:57.298Z,10.38
2023-07-02T01:48:24.229Z,9.02
2023-07-02T01:50:52.164Z,9.93
2023-07-02T01:53:19.016Z,9.40
2023-07-02T01:55:45.913Z,9.93
2023-07-02T01:58:13.870Z,10.48
2023-07-02T02:00:40.751Z,10.50
2023-07-02T02:03:07.716Z,10.23
2023-07-02T02:05:34.637Z,8.95
2023-07-02T02:08:01.499Z,10.52
2023-07-02T02:10:28.343Z,11.23
2023-07-02T02:12:55.243Z,11.60
2023-07-02T02:15:22.092Z,10.77
2023-07-02T02:17:49.075Z,10.32
2023-07-02T02:20:18.070Z,10.30
2023-07-02T02:22:44.927Z,9.13
2023-07-02T02:25:11.770Z,10.90
2023-07-02T02:27:38.737Z,9.88
2023-07-02T02:30:06.395Z,10.07
2023-07-02T02:32:33.425Z,10.80
2023-07-02T02:35:00.329Z,10.05
2023-07-02T02:37:27.253Z,10.10
2023-07-02T02:39:54.179Z,10.45
2023-07-02T02:42:21.008Z,10.23
2023-07-02T02:44:47.838Z,11.23
2023-07-02T02:47:14.707Z,10.27
2023-07-02T02:49:41.670Z,10.30
2023-07-02T02:52:08.683Z,10.80
2023-07-02T02:54:36.549Z,11.00
2023-07-02T02:57:03.623Z,11.50
2023-07-02T02:59:30.507Z,10.65
2023-07-02T03:01:57.466Z,10.98
2023-07-02T03:04:27.225Z,11.27
2023-07-02T03:06:54.238Z,12.30
2023-07-02T03:09:21.157Z,11.50
2023-07-02T03:11:48.891Z,10.45
2023-07-02T03:14:16.109Z,12.10
2023-07-02T03:16:44.183Z,10.90
2023-07-02T03:19:11.139Z,11.38
2023-07-02T03:21:38.016Z,12.75
2023-07-02T03:24:05.089Z,11.73
2023-07-02T03:26:32.095Z,11.48
2023-07-02T03:28:58.988Z,11.48
2023-07-02T03:31:25.953Z,11.20
2023-07-02T03:33:53.034Z,12.63
2023-07-02T03:36:19.886Z,11.02
2023-07-02T03:38:46.796Z,9.98
2023-07-02T03:41:13.728Z,9.63
2023-07-02T03:43:40.617Z,9.15
2023-07-02T03:46:07.497Z,9.70
2023-07-02T03:48:35.380Z,10.07
2023-07-02T03:51:03.933Z,9.82
2023-07-02T03:53:30.821Z,9.43
2023-07-02T03:55:57.665Z,8.95
2023-07-02T03:58:24.564Z,9.10
2023-07-02T04:00:51.649Z,8.73
2023-07-02T04:03:18.796Z,7.85
2023-07-02T04:05:45.797Z,7.63
2023-07-02T04:08:12.719Z,6.47
2023-07-02T04:10:39.589Z,6.68
2023-07-02T04:13:06.431Z,7.07
2023-07-02T04:15:33.418Z,7.00
2023-07-02T04:18:00.335Z,6.25
2023-07-02T04:20:27.217Z,6.70
2023-07-02T04:22:54.101Z,7.45
2023-07-02T04:25:30.499Z,7.32
2023-07-02T04:28:07.870Z,6.43
2023-07-02T04:30:35.354Z,6.53
2023-07-02T04:33:02.383Z,6.28
2023-07-02T04:35:29.341Z,6.30
2023-07-02T04:37:56.267Z,6.53
2023-07-02T04:40:23.195Z,6.35
2023-07-02T04:42:50.107Z,6.80
2023-07-02T04:45:18.487Z,6.93
2023-07-02T04:47:45.851Z,6.32
2023-07-02T04:50:12.868Z,6.03
2023-07-02T04:52:40.034Z,6.50
2023-07-02T04:55:12.968Z,6.28
2023-07-02T04:57:40.149Z,5.53
2023-07-02T05:00:07.790Z,5.68
2023-07-02T05:02:34.706Z,6.25
2023-07-02T05:05:01.755Z,6.30
2023-07-02T05:07:28.639Z,5.97
2023-07-02T05:09:55.555Z,5.90
2023-07-02T05:12:22.419Z,5.70
2023-07-02T05:14:49.261Z,6.57
2023-07-02T05:17:16.198Z,6.13
2023-07-02T05:19:43.671Z,6.85
2023-07-02T05:22:10.606Z,6.57
2023-07-02T05:24:37.591Z,6.25
2023-07-02T05:27:05.449Z,5.93
2023-07-02T05:29:32.303Z,6.22
2023-07-02T05:31:59.178Z,6.85
2023-07-02T05:34:26.555Z,6.18
2023-07-02T05:36:53.627Z,6.03
2023-07-02T05:39:20.575Z,6.45
2023-07-02T05:41:47.491Z,6.78
2023-07-02T05:44:14.335Z,6.93
2023-07-02T05:46:41.449Z,6.70
2023-07-02T05:49:08.326Z,6.82
2023-07-02T05:51:35.158Z,7.80
2023-07-02T05:54:01.995Z,7.53
2023-07-02T05:56:28.875Z,6.72
2023-07-02T05:58:55.902Z,7.80
2023-07-02T06:01:22.813Z,7.03
2023-07-02T06:03:51.517Z,7.35
2023-07-02T06:06:18.681Z,6.70
2023-07-02T06:08:45.558Z,7.35
2023-07-02T06:11:12.431Z,7.35
2023-07-02T06:13:39.296Z,6.93
2023-07-02T06:16:06.205Z,6.93
2023-07-02T06:18:34.236Z,8.55
2023-07-02T06:21:01.187Z,7.90
2023-07-02T06:23:28.200Z,8.25
2023-07-02T06:26:00.003Z,8.63
2023-07-02T06:28:27.887Z,10.27
2023-07-02T06:30:54.865Z,10.18
2023-07-02T06:33:21.721Z,10.20
2023-07-02T06:35:48.682Z,12.05
2023-07-02T06:38:15.529Z,12.38
2023-07-02T06:40:42.390Z,11.90
2023-07-02T06:43:09.357Z,13.05
2023-07-02T06:45:37.242Z,13.10
2023-07-02T06:48:04.224Z,12.85
2023-07-02T06:50:31.146Z,12.80
2023-07-02T06:52:58.088Z,13.48
2023-07-02T06:55:25.108Z,12.68
2023-07-02T06:57:52.097Z,13.95
2023-07-02T07:00:19.090Z,12.95
2023-07-02T07:02:45.973Z,12.00
2023-07-02T07:05:13.282Z,12.55
2023-07-02T07:07:40.163Z,12.75
2023-07-02T07:10:07.920Z,13.75
2023-07-02T07:12:35.814Z,13.50
2023-07-02T07:15:03.905Z,14.20
2023-07-02T07:17:30.954Z,13.38
2023-07-02T07:19:57.918Z,12.35
2023-07-02T07:22:24.754Z,12.20
2023-07-02T07:24:51.601Z,12.25
2023-07-02T07:27:18.543Z,12.27
2023-07-02T07:29:45.429Z,11.00
2023-07-02T07:32:12.359Z,12.55
2023-07-02T07:34:39.390Z,11.80
2023-07-02T07:37:06.872Z,11.35
2023-07-02T07:39:33.725Z,11.25
2023-07-02T07:42:00.594Z,10.68
2023-07-02T07:44:30.512Z,11.88
2023-07-02T07:46:57.392Z,12.05
2023-07-02T07:49:24.467Z,11.82
2023-07-02T07:51:51.370Z,10.27
2023-07-02T07:54:18.251Z,9.55
2023-07-02T07:56:45.095Z,9.55
2023-07-02T07:59:14.482Z,11.68
2023-07-02T08:01:41.450Z,10.25
2023-07-02T08:04:08.515Z,10.52
2023-07-02T08:06:35.514Z,8.95
2023-07-02T08:09:02.374Z,9.65
2023-07-02T08:11:29.852Z,10.43
2023-07-02T08:13:56.945Z,9.38
2023-07-02T08:16:23.906Z,10.82
2023-07-02T08:18:51.079Z,9.48
2023-07-02T08:21:17.998Z,8.52
2023-07-02T08:23:45.410Z,8.10
2023-07-02T08:26:12.619Z,7.65
2023-07-02T08:28:39.766Z,8.30
2023-07-02T08:31:07.030Z,7.20
2023-07-02T08:33:33.972Z,8.13
2023-07-02T08:36:02.182Z,8.45
2023-07-02T08:38:29.133Z,6.47
2023-07-02T08:40:56.114Z,6.80
2023-07-02T08:43:23.159Z,8.20
2023-07-02T08:45:50.060Z,7.60
2023-07-02T08:48:18.262Z,6.88
2023-07-02T08:50:45.185Z,6.60
2023-07-02T08:53:12.172Z,7.53
2023-07-02T08:55:41.260Z,6.88
2023-07-02T08:58:08.171Z,6.72
2023-07-02T09:00:38.498Z,6.80
2023-07-02T09:03:16.685Z,6.47
2023-07-02T09:05:55.925Z,6.78
2023-07-02T09:08:26.852Z,5.97
2023-07-02T09:10:53.787Z,6.20
2023-07-02T09:13:20.782Z,6.72
2023-07-02T09:15:47.726Z,7.55
2023-07-02T09:18:28.090Z,6.55
2023-07-02T09:20:57.982Z,6.85
2023-07-02T09:23:36.933Z,6.60
2023-07-02T09:26:04.474Z,6.90
2023-07-02T09:28:31.363Z,6.45
2023-07-02T09:30:58.788Z,6.63
2023-07-02T09:33:26.891Z,6.40
2023-07-02T09:35:54.046Z,6.90
2023-07-02T09:38:21.189Z,6.97
2023-07-02T09:40:50.628Z,5.97
2023-07-02T09:43:18.489Z,6.78
2023-07-02T09:45:46.767Z,6.90
2023-07-02T09:48:15.417Z,7.55
2023-07-02T09:50:46.773Z,7.25
2023-07-02T09:53:13.885Z,6.35
2023-07-02T09:55:41.201Z,6.55
2023-07-02T09:58:08.420Z,6.63
2023-07-02T10:00:35.715Z,6.72
2023-07-02T10:03:02.731Z,6.95
2023-07-02T10:05:30.846Z,7.97
2023-07-02T10:07:58.727Z,7.38
2023-07-02T10:10:32.224Z,7.43
2023-07-02T10:12:59.301Z,7.00
2023-07-02T10:15:27.590Z,7.50
2023-07-02T10:17:58.292Z,8.07
2023-07-02T10:20:39.186Z,8.60
2023-07-02T10:23:10.277Z,8.38
2023-07-02T10:25:38.969Z,8.75
2023-07-02T10:28:16.008Z,7.82
2023-07-02T10:30:43.202Z,8.57
2023-07-02T10:33:17.060Z,8.25
2023-07-02T10:35:50.356Z,7.88
2023-07-02T10:38:27.394Z,8.07
2023-07-02T10:40:57.842Z,9.40
2023-07-02T10:43:30.676Z,8.30
2023-07-02T10:46:01.107Z,7.85
2023-07-02T10:48:28.436Z,8.23
2023-07-02T10:50:56.328Z,8.77
2023-07-02T10:53:23.473Z,9.30
2023-07-02T10:55:57.920Z,9.55
2023-07-02T10:58:26.018Z,9.35
2023-07-02T11:00:53.328Z,8.85
2023-07-02T11:03:24.869Z,8.98
2023-07-02T11:05:52.572Z,7.93
2023-07-02T11:08:21.007Z,9.20
2023-07-02T11:10:47.981Z,9.38
2023-07-02T11:13:15.674Z,9.32
2023-07-02T11:15:43.131Z,8.98
2023-07-02T11:18:21.917Z,9.13
2023-07-02T11:20:48.932Z,9.70
2023-07-02T11:23:25.736Z,10.02
2023-07-02T11:26:02.416Z,9.00
2023-07-02T11:28:30.385Z,8.57
2023-07-02T11:30:57.593Z,8.65
2023-07-02T11:33:37.149Z,8.27
2023-07-02T11:36:05.289Z,8.05
2023-07-02T11:38:32.268Z,7.82
2023-07-02T11:40:59.182Z,8.07
2023-07-02T11:43:27.778Z,8.32
2023-07-02T11:45:54.725Z,8.80
2023-07-02T11:48:21.697Z,9.73
2023-07-02T11:50:48.662Z,7.63
2023-07-02T11:53:15.506Z,9.00
2023-07-02T11:55:42.397Z,9.40
2023-07-02T11:58:09.276Z,8.35
2023-07-02T12:00:37.297Z,7.70
2023-07-02T12:03:04.306Z,8.05
2023-07-02T12:05:31.300Z,8.45
2023-07-02T12:07:58.198Z,7.15
2023-07-02T12:10:25.144Z,7.70
2023-07-02T12:12:52.054Z,6.70
2023-07-02T12:15:19.010Z,7.78
2023-07-02T12:17:48.940Z,8.60
2023-07-02T12:20:15.971Z,7.97
2023-07-02T12:22:42.971Z,6.70
2023-07-02T12:25:09.914Z,6.32
2023-07-02T12:27:36.989Z,6.63
2023-07-02T12:30:04.179Z,7.13
2023-07-02T12:32:31.648Z,7.32
2023-07-02T12:34:59.814Z,7.68
2023-07-02T12:37:26.795Z,7.68
2023-07-02T12:39:53.702Z,6.60
2023-07-02T12:42:20.805Z,6.60
2023-07-02T12:44:47.700Z,5.95
2023-07-02T12:47:14.556Z,7.03
2023-07-02T12:49:41.465Z,7.38
2023-07-02T12:52:08.482Z,7.32
2023-07-02T12:54:35.388Z,7.47
2023-07-02T12:57:02.283Z,7.60
2023-07-02T12:59:29.278Z,7.90
2023-07-02T13:01:56.315Z,7.47
2023-07-02T13:04:23.369Z,7.68
2023-07-02T13:06:50.330Z,8.00
2023-07-02T13:09:17.263Z,7.20
2023-07-02T13:11:44.222Z,7.25
2023-07-02T13:14:11.367Z,7.05
2023-07-02T13:16:38.292Z,6.55
2023-07-02T13:19:05.184Z,7.35
2023-07-02T13:21:32.064Z,7.07
2023-07-02T13:23:59.392Z,7.07
2023-07-02T13:26:26.267Z,6.80
2023-07-02T13:28:53.244Z,6.90
2023-07-02T13:31:20.262Z,6.82
2023-07-02T13:33:47.645Z,6.45
2023-07-02T13:36:14.613Z,7.65
2023-07-02T13:38:41.545Z,7.03
2023-07-02T13:41:08.467Z,7.47
2023-07-02T13:43:35.572Z,8.63
2023-07-02T13:46:03.250Z,8.60
2023-07-02T13:48:30.186Z,7.10
2023-07-02T13:50:57.174Z,7.07
2023-07-02T13:53:24.093Z,8.30
2023-07-02T13:55:51.122Z,8.32
2023-07-02T13:58:29.223Z,7.22
2023-07-02T14:00:57.251Z,7.40
2023-07-02T14:03:24.501Z,7.78
2023-07-02T14:05:52.214Z,8.43
2023-07-02T14:08:19.651Z,8.73
2023-07-02T14:10:46.918Z,8.98
2023-07-02T14:13:14.220Z,9.00
2023-07-02T14:15:41.298Z,9.80
2023-07-02T14:18:08.262Z,9.52
2023-07-02T14:20:35.218Z,9.43
2023-07-02T14:23:02.268Z,9.02
2023-07-02T14:25:41.415Z,9.15
2023-07-02T14:28:09.479Z,10.00
2023-07-02T14:30:36.697Z,9.88
2023-07-02T14:33:04.389Z,9.70
2023-07-02T14:35:32.361Z,9.02
2023-07-02T14:37:59.424Z,9.85
2023-07-02T14:40:26.532Z,8.75
2023-07-02T14:42:53.557Z,8.48
2023-07-02T14:45:20.449Z,10.80
2023-07-02T14:47:47.447Z,9.68
2023-07-02T14:50:15.580Z,10.05
2023-07-02T14:52:43.578Z,10.52
2023-07-02T14:55:10.466Z,11.05
2023-07-02T14:57:37.447Z,8.68
2023-07-02T15:00:05.431Z,10.32
2023-07-02T15:02:32.457Z,10.13
2023-07-02T15:04:59.794Z,11.40
2023-07-02T15:07:26.851Z,10.90
2023-07-02T15:09:53.790Z,9.32
2023-07-02T15:12:21.031Z,9.57
2023-07-02T15:14:47.928Z,8.60
2023-07-02T15:17:14.987Z,10.45
2023-07-02T15:19:42.008Z,8.82
2023-07-02T15:22:08.998Z,8.77
2023-07-02T15:24:37.085Z,9.07
2023-07-02T15:27:04.492Z,8.93
2023-07-02T15:29:31.434Z,10.45
2023-07-02T15:31:58.410Z,9.80
2023-07-02T15:34:25.266Z,9.27
2023-07-02T15:36:53.712Z,9.93
2023-07-02T15:39:24.015Z,8.20
2023-07-02T15:41:51.084Z,9.18
2023-07-02T15:44:18.043Z,7.55
2023-07-02T15:46:45.695Z,9.43
2023-07-02T15:49:15.331Z,8.68
2023-07-02T15:51:43.589Z,8.98
2023-07-02T15:54:10.933Z,9.93
2023-07-02T15:56:37.870Z,9.10
2023-07-02T15:59:07.407Z,8.82
2023-07-02T16:01:35.640Z,8.63
2023-07-02T16:04:03.202Z,8.65
2023-07-02T16:06:33.905Z,9.02
2023-07-02T16:09:02.227Z,9.00
2023-07-02T16:11:30.221Z,8.68
2023-07-02T16:13:58.549Z,8.60
2023-07-02T16:16:25.607Z,8.15
2023-07-02T16:18:52.601Z,7.88
2023-07-02T16:21:19.613Z,9.18
2023-07-02T16:23:46.672Z,9.13
2023-07-02T16:26:13.614Z,7.32
2023-07-02T16:28:40.510Z,7.45
2023-07-02T16:31:09.223Z,8.50
2023-07-02T16:33:38.448Z,8.27
2023-07-02T16:36:07.883Z,8.05
2023-07-02T16:38:36.704Z,6.03
2023-07-02T16:41:04.698Z,7.30
2023-07-02T16:43:31.615Z,6.20
2023-07-02T16:45:58.712Z,7.18
2023-07-02T16:48:25.990Z,7.38
2023-07-02T16:51:03.518Z,8.48
2023-07-02T16:53:31.674Z,6.88
2023-07-02T16:56:00.301Z,8.15
2023-07-02T16:58:28.276Z,6.75
2023-07-02T17:01:01.273Z,7.40
2023-07-02T17:03:28.249Z,8.40
2023-07-02T17:05:55.557Z,7.30
2023-07-02T17:08:22.413Z,6.47
2023-07-02T17:10:49.279Z,6.70
2023-07-02T17:13:16.254Z,5.85
2023-07-02T17:15:43.161Z,6.60
2023-07-02T17:18:15.983Z,7.55
2023-07-02T17:20:42.955Z,7.05
2023-07-02T17:23:10.148Z,6.55
2023-07-02T17:25:37.110Z,6.32
2023-07-02T17:28:04.247Z,5.20
2023-07-02T17:30:31.149Z,6.35
2023-07-02T17:33:00.835Z,6.20
2023-07-02T17:35:27.939Z,6.35
2023-07-02T17:37:54.946Z,7.38
2023-07-02T17:40:21.993Z,7.72
2023-07-02T17:42:48.937Z,7.68
2023-07-02T17:45:18.087Z,5.85
2023-07-02T17:47:45.788Z,6.65
2023-07-02T17:50:12.944Z,7.13
2023-07-02T17:52:39.936Z,5.78
2023-07-02T17:55:07.388Z,5.90
2023-07-02T17:57:34.266Z,5.93
2023-07-02T18:00:01.425Z,7.03
2023-07-02T18:02:28.516Z,6.32
2023-07-02T18:04:55.662Z,4.97
2023-07-02T18:07:22.764Z,5.72
2023-07-02T18:09:50.753Z,5.43
2023-07-02T18:12:19.384Z,5.97
2023-07-02T18:14:46.550Z,5.63
2023-07-02T18:17:13.528Z,5.88
2023-07-02T18:19:40.451Z,6.68
2023-07-02T18:22:07.698Z,5.95
2023-07-02T18:24:36.235Z,6.38
2023-07-02T18:27:03.405Z,6.30
2023-07-02T18:29:33.170Z,5.50
2023-07-02T18:32:06.089Z,5.35
2023-07-02T18:34:34.560Z,5.65
2023-07-02T18:37:02.413Z,5.65
2023-07-02T18:39:34.450Z,5.85
2023-07-02T18:42:02.354Z,6.15
2023-07-02T18:44:34.971Z,5.30
2023-07-02T18:47:12.831Z,5.22
2023-07-02T18:49:40.377Z,6.93
2023-07-02T18:52:15.041Z,5.57
2023-07-02T18:54:42.089Z,5.28
2023-07-02T18:57:09.854Z,7.30
2023-07-02T18:59:36.928Z,6.07
2023-07-02T19:02:05.531Z,4.30
2023-07-02T19:04:34.097Z,5.70
2023-07-02T19:07:03.495Z,5.40
2023-07-02T19:09:30.897Z,6.57
2023-07-02T19:11:57.865Z,5.82
2023-07-02T19:14:25.731Z,5.53
2023-07-02T19:16:55.372Z,5.60
2023-07-02T19:19:22.262Z,5.68
2023-07-02T19:21:49.149Z,5.20
2023-07-02T19:24:16.059Z,6.13
2023-07-02T19:26:42.972Z,5.85
2023-07-02T19:29:14.284Z,5.85
2023-07-02T19:31:46.605Z,5.72
2023-07-02T19:34:15.642Z,5.43
2023-07-02T19:36:46.125Z,5.68
2023-07-02T19:39:14.624Z,4.57
2023-07-02T19:41:41.805Z,5.70
2023-07-02T19:44:08.716Z,5.78
2023-07-02T19:46:35.661Z,5.20
2023-07-02T19:49:04.811Z,5.05
2023-07-02T19:51:34.955Z,5.57
2023-07-02T19:54:04.391Z,5.35
2023-07-02T19:56:31.327Z,5.88
2023-07-02T19:58:58.168Z,4.97
2023-07-02T20:01:25.491Z,5.60
2023-07-02T20:03:53.094Z,4.82
2023-07-02T20:06:20.253Z,5.05
2023-07-02T20:08:48.058Z,5.55
2023-07-02T20:11:15.979Z,4.40
2023-07-02T20:13:42.878Z,4.40
2023-07-02T20:16:09.851Z,5.25
2023-07-02T20:18:36.954Z,5.22
2023-07-02T20:21:05.820Z,5.63
2023-07-02T20:23:33.050Z,4.97
2023-07-02T20:26:01.259Z,4.90
2023-07-02T20:28:28.231Z,5.25
2023-07-02T20:30:55.163Z,4.80
2023-07-02T20:33:22.220Z,6.07
2023-07-02T20:35:49.390Z,5.65
2023-07-02T20:38:16.453Z,6.03
2023-07-02T20:40:43.319Z,6.30
2023-07-02T20:43:14.886Z,4.97
2023-07-02T20:45:42.323Z,5.07
2023-07-02T20:48:11.283Z,6.13
2023-07-02T20:50:38.263Z,5.45
2023-07-02T20:53:06.057Z,5.90
2023-07-02T20:55:33.236Z,5.90
2023-07-02T20:58:00.138Z,5.03
2023-07-02T21:00:27.069Z,4.80
2023-07-02T21:02:54.093Z,5.32
2023-07-02T21:05:21.079Z,6.03
2023-07-02T21:07:49.844Z,5.45
2023-07-02T21:10:16.941Z,5.75
2023-07-02T21:12:43.796Z,5.63
2023-07-02T21:15:10.979Z,5.63
2023-07-02T21:17:38.041Z,5.53
2023-07-02T21:20:06.424Z,6.40
2023-07-02T21:22:33.379Z,5.50
2023-07-02T21:25:00.368Z,6.63
2023-07-02T21:27:27.269Z,5.57
2023-07-02T21:29:55.286Z,5.43
2023-07-02T21:32:23.144Z,7.82
2023-07-02T21:34:50.062Z,5.72
2023-07-02T21:37:16.904Z,6.82
2023-07-02T21:39:43.821Z,6.60
2023-07-02T21:42:10.676Z,5.68
2023-07-02T21:44:37.518Z,6.15
2023-07-02T21:47:04.608Z,6.15
2023-07-02T21:49:32.030Z,7.05
2023-07-02T21:51:58.950Z,6.65
2023-07-02T21:54:27.578Z,6.20
2023-07-02T21:56:54.667Z,5.97
2023-07-02T21:59:26.772Z,6.45
2023-07-02T22:01:54.700Z,7.40
2023-07-02T22:04:21.953Z,7.55
2023-07-02T22:06:48.856Z,5.95
2023-07-02T22:09:15.740Z,7.35
2023-07-02T22:11:42.584Z,6.05
2023-07-02T22:14:09.510Z,6.30
2023-07-02T22:16:37.537Z,6.70
2023-07-02T22:19:05.741Z,7.38
2023-07-02T22:21:33.792Z,6.85
2023-07-02T22:24:00.694Z,7.07
2023-07-02T22:26:27.701Z,6.95
2023-07-02T22:28:54.561Z,7.38
2023-07-02T22:31:21.526Z,8.55
2023-07-02T22:33:48.439Z,7.22
2023-07-02T22:36:15.377Z,7.50
2023-07-02T22:38:42.256Z,7.13
2023-07-02T22:41:09.440Z,7.03
2023-07-02T22:43:36.303Z,7.30
2023-07-02T22:46:03.275Z,7.85
2023-07-02T22:48:30.250Z,7.10
2023-07-02T22:50:57.976Z,7.65
2023-07-02T22:53:26.450Z,7.30
2023-07-02T22:55:53.438Z,7.97
2023-07-02T22:58:20.424Z,7.57
2023-07-02T23:00:47.269Z,8.50
2023-07-02T23:03:14.486Z,8.15
2023-07-02T23:05:41.709Z,6.90
2023-07-02T23:08:08.639Z,8.63
2023-07-02T23:10:35.709Z,7.30
2023-07-02T23:13:02.629Z,7.97
2023-07-02T23:15:29.487Z,7.75
2023-07-02T23:17:56.440Z,8.50
2023-07-02T23:20:23.468Z,8.68
2023-07-02T23:22:51.558Z,8.73
2023-07-02T23:25:21.571Z,7.85
2023-07-02T23:27:50.264Z,7.72
2023-07-02T23:30:19.517Z,9.32
2023-07-02T23:32:46.910Z,9.05
2023-07-02T23:35:14.613Z,8.63
2023-07-02T23:55:53.208Z,9.13
2023-07-02T23:58:20.711Z,10.30
